Terminal Aerodrome Forecast
Issued by NWS

Home | Current Version | Previous Version | Text Only | Print | Product List | Glossary On
Versions: 1 2 3 4 5 6 7 8 9 10 11 12 13
000
FTUS45 KSLC 250021 AAA
TAFLGU
TAF AMD
KLGU 250021Z 2500/2524 04007KT P6SM BKN100
     FM250300 31015KT P6SM SCT080 BKN150
     FM251800 33005KT P6SM SKC=

USA.gov is the U.S. government's official web portal to all federal, state and local government web resources and services.